sensor_id;sensor_type;location;lat;lon;timestamp;P1;durP1;ratioP1;P2;durP2;ratioP2
72559;SDS011;62987;52.382;9.752;2023-11-21T00:00:08;11.15;;;4.90;;
72559;SDS011;62987;52.382;9.752;2023-11-21T00:02:39;10.30;;;4.15;;
72559;SDS011;62987;52.382;9.752;2023-11-21T00:05:08;13.20;;;4.55;;
72559;SDS011;62987;52.382;9.752;2023-11-21T00:07:37;12.27;;;4.72;;
72559;SDS011;62987;52.382;9.752;2023-11-21T00:10:07;9.85;;;4.00;;
72559;SDS011;62987;52.382;9.752;2023-11-21T00:12:37;19.50;;;4.80;;
72559;SDS011;62987;52.382;9.752;2023-11-21T00:15:09;12.10;;;3.97;;
72559;SDS011;62987;52.382;9.752;2023-11-21T00:17:39;13.52;;;4.22;;
72559;SDS011;62987;52.382;9.752;2023-11-21T00:20:08;13.48;;;5.35;;
72559;SDS011;62987;52.382;9.752;2023-11-21T00:22:40;12.30;;;4.38;;
72559;SDS011;62987;52.382;9.752;2023-11-21T00:25:12;13.95;;;4.75;;
72559;SDS011;62987;52.382;9.752;2023-11-21T00:27:42;13.25;;;4.57;;
72559;SDS011;62987;52.382;9.752;2023-11-21T00:30:11;16.45;;;5.75;;
72559;SDS011;62987;52.382;9.752;2023-11-21T00:32:40;15.10;;;5.85;;
72559;SDS011;62987;52.382;9.752;2023-11-21T00:35:10;15.23;;;4.53;;
72559;SDS011;62987;52.382;9.752;2023-11-21T00:37:38;13.27;;;5.20;;
72559;SDS011;62987;52.382;9.752;2023-11-21T00:40:07;11.77;;;4.75;;
72559;SDS011;62987;52.382;9.752;2023-11-21T00:42:38;16.98;;;4.85;;
72559;SDS011;62987;52.382;9.752;2023-11-21T00:45:07;12.57;;;4.43;;
72559;SDS011;62987;52.382;9.752;2023-11-21T00:47:36;13.00;;;5.15;;
72559;SDS011;62987;52.382;9.752;2023-11-21T00:50:06;14.52;;;4.93;;
72559;SDS011;62987;52.382;9.752;2023-11-21T00:52:36;18.08;;;5.53;;
72559;SDS011;62987;52.382;9.752;2023-11-21T00:55:05;15.10;;;5.25;;
72559;SDS011;62987;52.382;9.752;2023-11-21T00:57:34;12.77;;;5.35;;
72559;SDS011;62987;52.382;9.752;2023-11-21T01:00:06;17.85;;;6.13;;
72559;SDS011;62987;52.382;9.752;2023-11-21T01:02:40;12.75;;;5.85;;
72559;SDS011;62987;52.382;9.752;2023-11-21T01:05:08;17.75;;;5.43;;
72559;SDS011;62987;52.382;9.752;2023-11-21T01:07:37;15.18;;;5.47;;
72559;SDS011;62987;52.382;9.752;2023-11-21T01:10:06;15.98;;;5.80;;
72559;SDS011;62987;52.382;9.752;2023-11-21T01:12:35;18.10;;;6.05;;
72559;SDS011;62987;52.382;9.752;2023-11-21T01:15:06;16.88;;;6.18;;
72559;SDS011;62987;52.382;9.752;2023-11-21T01:17:35;13.52;;;5.03;;
72559;SDS011;62987;52.382;9.752;2023-11-21T01:20:05;16.77;;;5.95;;
72559;SDS011;62987;52.382;9.752;2023-11-21T01:22:39;22.38;;;6.65;;
72559;SDS011;62987;52.382;9.752;2023-11-21T01:25:08;17.13;;;5.72;;
72559;SDS011;62987;52.382;9.752;2023-11-21T01:27:37;16.95;;;6.18;;
72559;SDS011;62987;52.382;9.752;2023-11-21T01:30:08;21.20;;;7.18;;
72559;SDS011;62987;52.382;9.752;2023-11-21T01:32:37;17.10;;;6.68;;
72559;SDS011;62987;52.382;9.752;2023-11-21T01:35:06;17.92;;;5.88;;
72559;SDS011;62987;52.382;9.752;2023-11-21T01:37:37;18.73;;;6.47;;
72559;SDS011;62987;52.382;9.752;2023-11-21T01:40:05;17.25;;;6.40;;
72559;SDS011;62987;52.382;9.752;2023-11-21T01:42:37;15.77;;;6.63;;
72559;SDS011;62987;52.382;9.752;2023-11-21T01:45:08;15.77;;;6.10;;
72559;SDS011;62987;52.382;9.752;2023-11-21T01:47:39;14.23;;;5.50;;
72559;SDS011;62987;52.382;9.752;2023-11-21T01:50:09;24.23;;;8.00;;
72559;SDS011;62987;52.382;9.752;2023-11-21T01:52:43;21.95;;;6.93;;
72559;SDS011;62987;52.382;9.752;2023-11-21T01:55:12;22.23;;;8.07;;
72559;SDS011;62987;52.382;9.752;2023-11-21T01:57:54;16.38;;;7.82;;
72559;SDS011;62987;52.382;9.752;2023-11-21T02:00:25;19.10;;;6.75;;
72559;SDS011;62987;52.382;9.752;2023-11-21T02:02:56;18.10;;;6.82;;
72559;SDS011;62987;52.382;9.752;2023-11-21T02:05:26;24.50;;;9.00;;
72559;SDS011;62987;52.382;9.752;2023-11-21T02:07:57;18.52;;;6.80;;
72559;SDS011;62987;52.382;9.752;2023-11-21T02:10:27;23.23;;;7.38;;
72559;SDS011;62987;52.382;9.752;2023-11-21T02:12:57;20.40;;;7.35;;
72559;SDS011;62987;52.382;9.752;2023-11-21T02:15:30;18.70;;;8.02;;
72559;SDS011;62987;52.382;9.752;2023-11-21T02:17:59;16.63;;;7.45;;
72559;SDS011;62987;52.382;9.752;2023-11-21T02:20:30;24.40;;;9.02;;
72559;SDS011;62987;52.382;9.752;2023-11-21T02:23:04;19.40;;;8.07;;
72559;SDS011;62987;52.382;9.752;2023-11-21T02:25:33;20.70;;;8.48;;
72559;SDS011;62987;52.382;9.752;2023-11-21T02:28:04;17.38;;;7.97;;
72559;SDS011;62987;52.382;9.752;2023-11-21T02:30:33;18.85;;;8.00;;
72559;SDS011;62987;52.382;9.752;2023-11-21T02:33:03;24.42;;;7.88;;
72559;SDS011;62987;52.382;9.752;2023-11-21T02:35:32;23.40;;;8.55;;
72559;SDS011;62987;52.382;9.752;2023-11-21T02:38:01;19.67;;;7.40;;
72559;SDS011;62987;52.382;9.752;2023-11-21T02:40:33;20.13;;;7.78;;
72559;SDS011;62987;52.382;9.752;2023-11-21T02:43:01;19.27;;;7.78;;
72559;SDS011;62987;52.382;9.752;2023-11-21T02:45:32;22.80;;;8.02;;
72559;SDS011;62987;52.382;9.752;2023-11-21T02:48:01;18.67;;;8.43;;
72559;SDS011;62987;52.382;9.752;2023-11-21T02:51:05;23.85;;;7.85;;
72559;SDS011;62987;52.382;9.752;2023-11-21T02:53:35;28.65;;;8.98;;
72559;SDS011;62987;52.382;9.752;2023-11-21T02:56:05;29.00;;;9.18;;
72559;SDS011;62987;52.382;9.752;2023-11-21T02:58:34;24.52;;;7.53;;
72559;SDS011;62987;52.382;9.752;2023-11-21T03:01:03;22.60;;;8.20;;
72559;SDS011;62987;52.382;9.752;2023-11-21T03:03:35;24.48;;;7.18;;
72559;SDS011;62987;52.382;9.752;2023-11-21T03:06:07;28.98;;;10.85;;
72559;SDS011;62987;52.382;9.752;2023-11-21T03:08:37;37.63;;;9.43;;
72559;SDS011;62987;52.382;9.752;2023-11-21T03:11:05;25.92;;;9.45;;
72559;SDS011;62987;52.382;9.752;2023-11-21T03:13:33;25.92;;;8.85;;
72559;SDS011;62987;52.382;9.752;2023-11-21T03:16:02;24.40;;;8.18;;
72559;SDS011;62987;52.382;9.752;2023-11-21T03:18:30;24.85;;;8.13;;
72559;SDS011;62987;52.382;9.752;2023-11-21T03:20:59;21.00;;;8.00;;
72559;SDS011;62987;52.382;9.752;2023-11-21T03:23:27;27.35;;;9.73;;
72559;SDS011;62987;52.382;9.752;2023-11-21T03:25:57;24.45;;;8.27;;
72559;SDS011;62987;52.382;9.752;2023-11-21T03:28:26;22.50;;;10.13;;
72559;SDS011;62987;52.382;9.752;2023-11-21T03:30:56;19.45;;;8.55;;
72559;SDS011;62987;52.382;9.752;2023-11-21T03:33:24;26.27;;;8.77;;
72559;SDS011;62987;52.382;9.752;2023-11-21T03:35:52;26.48;;;9.10;;
72559;SDS011;62987;52.382;9.752;2023-11-21T03:38:21;23.73;;;9.20;;
72559;SDS011;62987;52.382;9.752;2023-11-21T03:40:49;28.38;;;9.48;;
72559;SDS011;62987;52.382;9.752;2023-11-21T03:43:19;26.42;;;11.15;;
72559;SDS011;62987;52.382;9.752;2023-11-21T03:45:48;24.52;;;9.98;;
72559;SDS011;62987;52.382;9.752;2023-11-21T03:48:16;31.05;;;10.77;;
72559;SDS011;62987;52.382;9.752;2023-11-21T03:50:44;28.80;;;10.65;;
72559;SDS011;62987;52.382;9.752;2023-11-21T03:53:14;34.13;;;10.60;;
72559;SDS011;62987;52.382;9.752;2023-11-21T03:55:42;31.92;;;9.68;;
72559;SDS011;62987;52.382;9.752;2023-11-21T03:58:11;31.38;;;11.00;;
72559;SDS011;62987;52.382;9.752;2023-11-21T04:00:41;31.38;;;10.35;;
72559;SDS011;62987;52.382;9.752;2023-11-21T04:03:09;25.70;;;10.32;;
72559;SDS011;62987;52.382;9.752;2023-11-21T04:05:37;29.00;;;11.23;;
72559;SDS011;62987;52.382;9.752;2023-11-21T04:08:06;34.67;;;12.52;;
72559;SDS011;62987;52.382;9.752;2023-11-21T04:10:34;32.42;;;9.45;;
72559;SDS011;62987;52.382;9.752;2023-11-21T04:13:03;32.20;;;10.27;;
72559;SDS011;62987;52.382;9.752;2023-11-21T04:15:32;36.80;;;10.45;;
72559;SDS011;62987;52.382;9.752;2023-11-21T04:18:02;31.15;;;11.00;;
72559;SDS011;62987;52.382;9.752;2023-11-21T04:20:30;37.72;;;13.27;;
72559;SDS011;62987;52.382;9.752;2023-11-21T04:22:59;33.97;;;11.98;;
72559;SDS011;62987;52.382;9.752;2023-11-21T04:25:27;38.58;;;13.05;;
72559;SDS011;62987;52.382;9.752;2023-11-21T04:27:56;34.80;;;11.25;;
72559;SDS011;62987;52.382;9.752;2023-11-21T04:30:24;28.58;;;11.30;;
72559;SDS011;62987;52.382;9.752;2023-11-21T04:32:52;45.30;;;12.80;;
72559;SDS011;62987;52.382;9.752;2023-11-21T04:35:22;33.63;;;12.10;;
72559;SDS011;62987;52.382;9.752;2023-11-21T04:37:50;38.45;;;11.35;;
72559;SDS011;62987;52.382;9.752;2023-11-21T04:40:21;32.88;;;10.40;;
72559;SDS011;62987;52.382;9.752;2023-11-21T04:42:49;29.20;;;9.95;;
72559;SDS011;62987;52.382;9.752;2023-11-21T04:45:18;40.20;;;12.23;;
72559;SDS011;62987;52.382;9.752;2023-11-21T04:47:46;31.63;;;10.38;;
72559;SDS011;62987;52.382;9.752;2023-11-21T04:50:14;33.92;;;10.90;;
72559;SDS011;62987;52.382;9.752;2023-11-21T04:52:44;26.50;;;10.77;;
72559;SDS011;62987;52.382;9.752;2023-11-21T04:55:12;35.22;;;11.70;;
72559;SDS011;62987;52.382;9.752;2023-11-21T04:57:42;35.63;;;10.30;;
72559;SDS011;62987;52.382;9.752;2023-11-21T05:00:10;29.50;;;10.38;;
72559;SDS011;62987;52.382;9.752;2023-11-21T05:02:40;39.45;;;11.90;;
72559;SDS011;62987;52.382;9.752;2023-11-21T05:05:11;33.53;;;11.05;;
72559;SDS011;62987;52.382;9.752;2023-11-21T05:07:39;33.83;;;11.18;;
72559;SDS011;62987;52.382;9.752;2023-11-21T05:10:09;27.65;;;8.20;;
72559;SDS011;62987;52.382;9.752;2023-11-21T05:12:41;31.35;;;9.63;;
72559;SDS011;62987;52.382;9.752;2023-11-21T05:15:11;25.58;;;8.68;;
72559;SDS011;62987;52.382;9.752;2023-11-21T05:17:42;33.50;;;10.20;;
72559;SDS011;62987;52.382;9.752;2023-11-21T05:20:13;28.67;;;9.82;;
72559;SDS011;62987;52.382;9.752;2023-11-21T05:22:45;32.40;;;10.45;;
72559;SDS011;62987;52.382;9.752;2023-11-21T05:25:15;25.38;;;9.98;;
72559;SDS011;62987;52.382;9.752;2023-11-21T05:27:45;28.85;;;10.63;;
72559;SDS011;62987;52.382;9.752;2023-11-21T05:30:13;32.05;;;9.43;;
72559;SDS011;62987;52.382;9.752;2023-11-21T05:32:42;26.23;;;9.38;;
72559;SDS011;62987;52.382;9.752;2023-11-21T05:35:10;26.50;;;9.63;;
72559;SDS011;62987;52.382;9.752;2023-11-21T05:37:44;22.88;;;7.70;;
72559;SDS011;62987;52.382;9.752;2023-11-21T05:40:15;28.63;;;8.68;;
72559;SDS011;62987;52.382;9.752;2023-11-21T05:42:46;21.67;;;7.60;;
72559;SDS011;62987;52.382;9.752;2023-11-21T05:45:15;21.40;;;6.43;;
72559;SDS011;62987;52.382;9.752;2023-11-21T05:47:44;19.73;;;7.03;;
72559;SDS011;62987;52.382;9.752;2023-11-21T05:50:14;19.35;;;6.50;;
72559;SDS011;62987;52.382;9.752;2023-11-21T05:52:45;16.63;;;6.93;;
72559;SDS011;62987;52.382;9.752;2023-11-21T05:55:16;18.15;;;5.95;;
72559;SDS011;62987;52.382;9.752;2023-11-21T05:57:46;14.27;;;6.13;;
72559;SDS011;62987;52.382;9.752;2023-11-21T06:00:14;16.88;;;5.88;;
72559;SDS011;62987;52.382;9.752;2023-11-21T06:02:48;15.57;;;5.18;;
72559;SDS011;62987;52.382;9.752;2023-11-21T06:05:21;14.25;;;5.63;;
72559;SDS011;62987;52.382;9.752;2023-11-21T06:07:52;17.85;;;6.32;;
72559;SDS011;62987;52.382;9.752;2023-11-21T06:10:27;15.02;;;5.82;;
72559;SDS011;62987;52.382;9.752;2023-11-21T06:12:56;19.40;;;7.00;;
72559;SDS011;62987;52.382;9.752;2023-11-21T06:15:29;16.90;;;6.40;;
72559;SDS011;62987;52.382;9.752;2023-11-21T06:17:58;14.52;;;6.50;;
72559;SDS011;62987;52.382;9.752;2023-11-21T06:20:27;18.33;;;7.65;;
72559;SDS011;62987;52.382;9.752;2023-11-21T06:22:55;19.30;;;6.43;;
72559;SDS011;62987;52.382;9.752;2023-11-21T06:25:23;18.60;;;7.32;;
72559;SDS011;62987;52.382;9.752;2023-11-21T06:27:53;15.93;;;7.30;;
72559;SDS011;62987;52.382;9.752;2023-11-21T06:30:21;17.92;;;6.35;;
72559;SDS011;62987;52.382;9.752;2023-11-21T06:32:51;15.68;;;6.22;;
72559;SDS011;62987;52.382;9.752;2023-11-21T06:35:20;17.75;;;6.97;;
72559;SDS011;62987;52.382;9.752;2023-11-21T06:37:49;17.42;;;6.72;;
72559;SDS011;62987;52.382;9.752;2023-11-21T06:40:19;14.98;;;4.80;;
72559;SDS011;62987;52.382;9.752;2023-11-21T06:42:48;12.20;;;4.80;;
72559;SDS011;62987;52.382;9.752;2023-11-21T06:45:18;9.32;;;4.25;;
72559;SDS011;62987;52.382;9.752;2023-11-21T06:47:48;9.85;;;4.50;;
72559;SDS011;62987;52.382;9.752;2023-11-21T06:50:17;8.27;;;3.45;;
72559;SDS011;62987;52.382;9.752;2023-11-21T06:52:45;12.85;;;4.90;;
72559;SDS011;62987;52.382;9.752;2023-11-21T06:55:15;9.93;;;3.83;;
72559;SDS011;62987;52.382;9.752;2023-11-21T06:57:43;9.32;;;4.25;;
72559;SDS011;62987;52.382;9.752;2023-11-21T07:00:15;10.02;;;3.55;;
72559;SDS011;62987;52.382;9.752;2023-11-21T07:02:47;9.00;;;2.90;;
72559;SDS011;62987;52.382;9.752;2023-11-21T07:05:16;11.20;;;4.43;;
72559;SDS011;62987;52.382;9.752;2023-11-21T07:07:48;9.30;;;3.88;;
72559;SDS011;62987;52.382;9.752;2023-11-21T07:10:17;9.77;;;3.78;;
72559;SDS011;62987;52.382;9.752;2023-11-21T07:13:08;9.00;;;3.22;;
72559;SDS011;62987;52.382;9.752;2023-11-21T07:15:39;10.35;;;3.65;;
72559;SDS011;62987;52.382;9.752;2023-11-21T07:18:09;8.20;;;2.88;;
72559;SDS011;62987;52.382;9.752;2023-11-21T07:20:38;10.65;;;3.72;;
72559;SDS011;62987;52.382;9.752;2023-11-21T07:23:06;8.57;;;3.30;;
72559;SDS011;62987;52.382;9.752;2023-11-21T07:25:34;6.85;;;3.60;;
72559;SDS011;62987;52.382;9.752;2023-11-21T07:28:03;7.53;;;3.20;;
72559;SDS011;62987;52.382;9.752;2023-11-21T07:30:42;10.00;;;3.35;;
72559;SDS011;62987;52.382;9.752;2023-11-21T07:33:21;10.48;;;4.05;;
72559;SDS011;62987;52.382;9.752;2023-11-21T07:35:49;7.78;;;3.67;;
72559;SDS011;62987;52.382;9.752;2023-11-21T07:38:17;9.27;;;3.40;;
72559;SDS011;62987;52.382;9.752;2023-11-21T07:40:46;8.50;;;3.60;;
72559;SDS011;62987;52.382;9.752;2023-11-21T07:43:14;10.75;;;3.78;;
72559;SDS011;62987;52.382;9.752;2023-11-21T07:45:42;9.65;;;3.70;;
72559;SDS011;62987;52.382;9.752;2023-11-21T07:48:13;10.05;;;3.88;;
72559;SDS011;62987;52.382;9.752;2023-11-21T07:50:43;8.88;;;3.55;;
72559;SDS011;62987;52.382;9.752;2023-11-21T07:53:13;9.07;;;3.80;;
72559;SDS011;62987;52.382;9.752;2023-11-21T07:55:49;10.05;;;3.75;;
72559;SDS011;62987;52.382;9.752;2023-11-21T07:58:17;11.02;;;3.50;;
72559;SDS011;62987;52.382;9.752;2023-11-21T08:00:45;10.35;;;4.28;;
72559;SDS011;62987;52.382;9.752;2023-11-21T08:03:14;13.30;;;4.32;;
72559;SDS011;62987;52.382;9.752;2023-11-21T08:05:44;9.90;;;4.32;;
72559;SDS011;62987;52.382;9.752;2023-11-21T08:08:12;8.80;;;4.00;;
72559;SDS011;62987;52.382;9.752;2023-11-21T08:10:41;12.13;;;5.13;;
72559;SDS011;62987;52.382;9.752;2023-11-21T08:13:12;11.32;;;4.50;;
72559;SDS011;62987;52.382;9.752;2023-11-21T08:15:42;12.82;;;5.90;;
72559;SDS011;62987;52.382;9.752;2023-11-21T08:19:36;13.30;;;5.68;;
72559;SDS011;62987;52.382;9.752;2023-11-21T08:22:05;14.38;;;5.60;;
72559;SDS011;62987;52.382;9.752;2023-11-21T08:24:34;13.20;;;5.28;;
72559;SDS011;62987;52.382;9.752;2023-11-21T08:27:03;15.98;;;5.43;;
72559;SDS011;62987;52.382;9.752;2023-11-21T08:29:31;16.50;;;5.90;;
72559;SDS011;62987;52.382;9.752;2023-11-21T08:32:00;14.05;;;6.00;;
72559;SDS011;62987;52.382;9.752;2023-11-21T08:34:29;14.40;;;5.90;;
72559;SDS011;62987;52.382;9.752;2023-11-21T08:36:58;13.02;;;5.93;;
72559;SDS011;62987;52.382;9.752;2023-11-21T08:41:36;14.77;;;5.93;;
72559;SDS011;62987;52.382;9.752;2023-11-21T08:44:05;15.57;;;5.85;;
72559;SDS011;62987;52.382;9.752;2023-11-21T08:46:34;15.32;;;7.18;;
72559;SDS011;62987;52.382;9.752;2023-11-21T08:49:03;14.63;;;6.20;;
72559;SDS011;62987;52.382;9.752;2023-11-21T08:51:32;9.55;;;5.38;;
72559;SDS011;62987;52.382;9.752;2023-11-21T08:54:01;13.48;;;6.63;;
72559;SDS011;62987;52.382;9.752;2023-11-21T08:56:31;12.25;;;6.30;;
72559;SDS011;62987;52.382;9.752;2023-11-21T08:59:01;12.13;;;5.70;;
72559;SDS011;62987;52.382;9.752;2023-11-21T09:01:30;15.60;;;5.97;;
72559;SDS011;62987;52.382;9.752;2023-11-21T09:04:00;13.88;;;6.80;;
72559;SDS011;62987;52.382;9.752;2023-11-21T09:06:29;13.95;;;6.03;;
72559;SDS011;62987;52.382;9.752;2023-11-21T09:08:57;11.40;;;6.63;;
72559;SDS011;62987;52.382;9.752;2023-11-21T09:11:26;15.20;;;6.32;;
72559;SDS011;62987;52.382;9.752;2023-11-21T09:14:01;13.55;;;5.13;;
72559;SDS011;62987;52.382;9.752;2023-11-21T09:16:30;13.38;;;6.55;;
72559;SDS011;62987;52.382;9.752;2023-11-21T09:19:00;11.75;;;5.88;;
72559;SDS011;62987;52.382;9.752;2023-11-21T09:21:32;10.25;;;4.30;;
72559;SDS011;62987;52.382;9.752;2023-11-21T09:24:01;11.07;;;5.13;;
72559;SDS011;62987;52.382;9.752;2023-11-21T09:26:29;11.27;;;4.55;;
72559;SDS011;62987;52.382;9.752;2023-11-21T09:28:58;11.10;;;5.38;;
72559;SDS011;62987;52.382;9.752;2023-11-21T09:31:27;14.43;;;5.55;;
72559;SDS011;62987;52.382;9.752;2023-11-21T09:33:58;11.73;;;4.70;;
72559;SDS011;62987;52.382;9.752;2023-11-21T09:36:26;11.85;;;5.07;;
72559;SDS011;62987;52.382;9.752;2023-11-21T09:38:56;12.35;;;5.57;;
72559;SDS011;62987;52.382;9.752;2023-11-21T09:41:26;10.68;;;5.07;;
72559;SDS011;62987;52.382;9.752;2023-11-21T09:44:02;7.45;;;3.40;;
72559;SDS011;62987;52.382;9.752;2023-11-21T09:46:35;12.75;;;5.05;;
72559;SDS011;62987;52.382;9.752;2023-11-21T09:49:09;9.77;;;4.40;;
72559;SDS011;62987;52.382;9.752;2023-11-21T09:51:42;9.93;;;4.20;;
72559;SDS011;62987;52.382;9.752;2023-11-21T09:54:11;9.25;;;4.30;;
72559;SDS011;62987;52.382;9.752;2023-11-21T09:56:40;11.45;;;4.32;;
72559;SDS011;62987;52.382;9.752;2023-11-21T09:59:10;13.00;;;5.03;;
72559;SDS011;62987;52.382;9.752;2023-11-21T10:01:46;7.35;;;3.75;;
72559;SDS011;62987;52.382;9.752;2023-11-21T10:04:15;10.38;;;4.30;;
72559;SDS011;62987;52.382;9.752;2023-11-21T10:06:44;7.22;;;3.53;;
72559;SDS011;62987;52.382;9.752;2023-11-21T10:09:16;6.97;;;3.75;;
72559;SDS011;62987;52.382;9.752;2023-11-21T10:11:47;7.38;;;3.75;;
72559;SDS011;62987;52.382;9.752;2023-11-21T10:14:18;6.70;;;3.05;;
72559;SDS011;62987;52.382;9.752;2023-11-21T10:16:53;9.68;;;4.28;;
72559;SDS011;62987;52.382;9.752;2023-11-21T10:19:24;9.38;;;4.07;;
72559;SDS011;62987;52.382;9.752;2023-11-21T10:21:54;8.23;;;3.67;;
72559;SDS011;62987;52.382;9.752;2023-11-21T10:24:24;9.23;;;3.97;;
72559;SDS011;62987;52.382;9.752;2023-11-21T10:26:55;7.28;;;3.17;;
72559;SDS011;62987;52.382;9.752;2023-11-21T10:29:23;8.75;;;4.18;;
72559;SDS011;62987;52.382;9.752;2023-11-21T10:31:55;7.22;;;3.42;;
72559;SDS011;62987;52.382;9.752;2023-11-21T10:34:25;6.65;;;3.20;;
72559;SDS011;62987;52.382;9.752;2023-11-21T10:36:55;9.02;;;3.95;;
72559;SDS011;62987;52.382;9.752;2023-11-21T10:39:25;8.48;;;3.38;;
72559;SDS011;62987;52.382;9.752;2023-11-21T10:41:57;8.10;;;3.17;;
72559;SDS011;62987;52.382;9.752;2023-11-21T10:44:27;7.47;;;3.72;;
72559;SDS011;62987;52.382;9.752;2023-11-21T10:46:57;6.72;;;3.50;;
72559;SDS011;62987;52.382;9.752;2023-11-21T10:49:29;7.85;;;3.15;;
72559;SDS011;62987;52.382;9.752;2023-11-21T10:51:59;6.60;;;3.13;;
72559;SDS011;62987;52.382;9.752;2023-11-21T10:54:28;7.38;;;3.00;;
72559;SDS011;62987;52.382;9.752;2023-11-21T10:56:57;8.00;;;3.55;;
72559;SDS011;62987;52.382;9.752;2023-11-21T10:59:28;7.63;;;3.55;;
72559;SDS011;62987;52.382;9.752;2023-11-21T11:02:00;6.47;;;3.17;;
72559;SDS011;62987;52.382;9.752;2023-11-21T11:04:31;6.78;;;3.47;;
72559;SDS011;62987;52.382;9.752;2023-11-21T11:07:01;7.80;;;4.47;;
72559;SDS011;62987;52.382;9.752;2023-11-21T11:09:32;7.43;;;3.20;;
72559;SDS011;62987;52.382;9.752;2023-11-21T11:12:01;6.53;;;3.35;;
72559;SDS011;62987;52.382;9.752;2023-11-21T11:14:31;8.02;;;3.97;;
72559;SDS011;62987;52.382;9.752;2023-11-21T11:17:01;6.35;;;3.10;;
72559;SDS011;62987;52.382;9.752;2023-11-21T11:19:32;10.27;;;4.55;;
72559;SDS011;62987;52.382;9.752;2023-11-21T11:22:05;6.80;;;2.90;;
72559;SDS011;62987;52.382;9.752;2023-11-21T11:24:52;7.28;;;3.33;;
72559;SDS011;62987;52.382;9.752;2023-11-21T11:27:43;6.85;;;3.10;;
72559;SDS011;62987;52.382;9.752;2023-11-21T11:30:20;6.22;;;3.40;;
72559;SDS011;62987;52.382;9.752;2023-11-21T11:33:08;7.22;;;3.53;;
72559;SDS011;62987;52.382;9.752;2023-11-21T11:35:46;6.15;;;3.20;;
72559;SDS011;62987;52.382;9.752;2023-11-21T11:38:21;6.72;;;2.95;;
72559;SDS011;62987;52.382;9.752;2023-11-21T11:40:52;5.97;;;3.22;;
72559;SDS011;62987;52.382;9.752;2023-11-21T11:43:25;5.35;;;2.58;;
72559;SDS011;62987;52.382;9.752;2023-11-21T11:45:55;5.82;;;2.92;;
72559;SDS011;62987;52.382;9.752;2023-11-21T11:48:27;7.10;;;2.80;;
72559;SDS011;62987;52.382;9.752;2023-11-21T11:58:47;7.22;;;3.40;;
72559;SDS011;62987;52.382;9.752;2023-11-21T12:01:16;6.40;;;2.90;;
72559;SDS011;62987;52.382;9.752;2023-11-21T12:06:52;7.13;;;3.13;;
72559;SDS011;62987;52.382;9.752;2023-11-21T12:09:22;7.70;;;3.40;;
72559;SDS011;62987;52.382;9.752;2023-11-21T12:11:51;6.68;;;2.80;;
72559;SDS011;62987;52.382;9.752;2023-11-21T12:14:19;5.07;;;2.67;;
72559;SDS011;62987;52.382;9.752;2023-11-21T12:16:48;4.60;;;2.67;;
72559;SDS011;62987;52.382;9.752;2023-11-21T12:19:19;8.98;;;2.80;;
72559;SDS011;62987;52.382;9.752;2023-11-21T12:21:49;5.32;;;2.20;;
72559;SDS011;62987;52.382;9.752;2023-11-21T12:24:20;5.10;;;2.38;;
72559;SDS011;62987;52.382;9.752;2023-11-21T12:26:50;5.43;;;2.75;;
72559;SDS011;62987;52.382;9.752;2023-11-21T12:29:21;5.13;;;2.38;;
72559;SDS011;62987;52.382;9.752;2023-11-21T12:31:50;5.07;;;2.22;;
72559;SDS011;62987;52.382;9.752;2023-11-21T12:34:18;6.78;;;2.70;;
72559;SDS011;62987;52.382;9.752;2023-11-21T12:36:46;4.72;;;2.70;;
72559;SDS011;62987;52.382;9.752;2023-11-21T12:39:16;5.45;;;2.45;;
72559;SDS011;62987;52.382;9.752;2023-11-21T12:41:46;5.15;;;2.35;;
72559;SDS011;62987;52.382;9.752;2023-11-21T12:44:14;6.20;;;2.85;;
72559;SDS011;62987;52.382;9.752;2023-11-21T12:46:43;4.80;;;2.38;;
72559;SDS011;62987;52.382;9.752;2023-11-21T12:49:13;7.53;;;3.50;;
72559;SDS011;62987;52.382;9.752;2023-11-21T12:51:45;5.53;;;2.75;;
72559;SDS011;62987;52.382;9.752;2023-11-21T12:54:14;7.00;;;3.30;;
72559;SDS011;62987;52.382;9.752;2023-11-21T12:56:46;7.63;;;3.85;;
72559;SDS011;62987;52.382;9.752;2023-11-21T12:59:16;7.00;;;3.22;;
72559;SDS011;62987;52.382;9.752;2023-11-21T13:01:45;6.03;;;2.90;;
72559;SDS011;62987;52.382;9.752;2023-11-21T13:04:18;5.05;;;2.97;;
72559;SDS011;62987;52.382;9.752;2023-11-21T13:06:46;6.10;;;2.78;;
72559;SDS011;62987;52.382;9.752;2023-11-21T13:09:15;6.57;;;3.13;;
72559;SDS011;62987;52.382;9.752;2023-11-21T13:14:20;5.97;;;3.13;;
72559;SDS011;62987;52.382;9.752;2023-11-21T13:16:57;7.57;;;3.88;;
72559;SDS011;62987;52.382;9.752;2023-11-21T13:19:30;6.75;;;2.42;;
72559;SDS011;62987;52.382;9.752;2023-11-21T13:21:59;6.20;;;3.03;;
72559;SDS011;62987;52.382;9.752;2023-11-21T13:24:30;7.88;;;3.42;;
72559;SDS011;62987;52.382;9.752;2023-11-21T13:27:00;6.63;;;3.08;;
72559;SDS011;62987;52.382;9.752;2023-11-21T13:29:29;7.15;;;2.95;;
72559;SDS011;62987;52.382;9.752;2023-11-21T13:31:57;7.38;;;3.47;;
72559;SDS011;62987;52.382;9.752;2023-11-21T13:34:26;6.82;;;3.03;;
72559;SDS011;62987;52.382;9.752;2023-11-21T13:36:59;6.03;;;3.03;;
72559;SDS011;62987;52.382;9.752;2023-11-21T13:39:30;6.40;;;3.28;;
72559;SDS011;62987;52.382;9.752;2023-11-21T13:42:00;7.65;;;3.15;;
72559;SDS011;62987;52.382;9.752;2023-11-21T13:44:30;6.85;;;3.35;;
72559;SDS011;62987;52.382;9.752;2023-11-21T13:47:04;6.50;;;3.17;;
72559;SDS011;62987;52.382;9.752;2023-11-21T13:49:33;7.65;;;3.20;;
72559;SDS011;62987;52.382;9.752;2023-11-21T13:52:07;5.90;;;3.13;;
72559;SDS011;62987;52.382;9.752;2023-11-21T13:54:37;6.40;;;2.80;;
72559;SDS011;62987;52.382;9.752;2023-11-21T13:57:08;6.15;;;2.78;;
72559;SDS011;62987;52.382;9.752;2023-11-21T13:59:36;6.50;;;3.08;;
72559;SDS011;62987;52.382;9.752;2023-11-21T14:02:04;4.78;;;2.60;;
72559;SDS011;62987;52.382;9.752;2023-11-21T14:04:49;4.57;;;2.20;;
72559;SDS011;62987;52.382;9.752;2023-11-21T14:08:16;4.78;;;2.10;;
72559;SDS011;62987;52.382;9.752;2023-11-21T14:10:26;12.10;;;3.55;;
72559;SDS011;62987;52.382;9.752;2023-11-21T14:13:05;5.50;;;2.75;;
72559;SDS011;62987;52.382;9.752;2023-11-21T14:15:33;4.65;;;2.55;;
72559;SDS011;62987;52.382;9.752;2023-11-21T14:18:08;4.45;;;2.70;;
72559;SDS011;62987;52.382;9.752;2023-11-21T14:20:38;5.30;;;2.53;;
72559;SDS011;62987;52.382;9.752;2023-11-21T14:23:07;5.43;;;3.03;;
72559;SDS011;62987;52.382;9.752;2023-11-21T14:25:37;5.68;;;2.58;;
72559;SDS011;62987;52.382;9.752;2023-11-21T14:28:07;6.82;;;2.63;;
72559;SDS011;62987;52.382;9.752;2023-11-21T14:30:38;7.15;;;2.42;;
72559;SDS011;62987;52.382;9.752;2023-11-21T14:33:07;5.57;;;2.83;;
72559;SDS011;62987;52.382;9.752;2023-11-21T14:35:38;5.15;;;2.55;;
72559;SDS011;62987;52.382;9.752;2023-11-21T14:38:06;6.63;;;2.78;;
72559;SDS011;62987;52.382;9.752;2023-11-21T14:40:36;6.05;;;2.78;;
72559;SDS011;62987;52.382;9.752;2023-11-21T14:43:04;7.85;;;2.72;;
72559;SDS011;62987;52.382;9.752;2023-11-21T14:45:34;5.57;;;2.78;;
72559;SDS011;62987;52.382;9.752;2023-11-21T14:48:03;10.48;;;3.33;;
72559;SDS011;62987;52.382;9.752;2023-11-21T14:50:42;8.60;;;3.05;;
72559;SDS011;62987;52.382;9.752;2023-11-21T14:53:17;7.53;;;3.67;;
72559;SDS011;62987;52.382;9.752;2023-11-21T14:56:05;7.38;;;2.50;;
72559;SDS011;62987;52.382;9.752;2023-11-21T14:58:34;6.18;;;2.92;;
72559;SDS011;62987;52.382;9.752;2023-11-21T15:01:06;8.82;;;3.38;;
72559;SDS011;62987;52.382;9.752;2023-11-21T15:03:35;6.18;;;3.05;;
72559;SDS011;62987;52.382;9.752;2023-11-21T15:06:13;7.03;;;3.33;;
72559;SDS011;62987;52.382;9.752;2023-11-21T15:08:53;7.82;;;3.22;;
72559;SDS011;62987;52.382;9.752;2023-11-21T15:11:44;5.53;;;3.25;;
72559;SDS011;62987;52.382;9.752;2023-11-21T15:14:14;5.93;;;2.95;;